PDT,Max TemperatureF,Mean TemperatureF,Min TemperatureF,Max Dew PointF,MeanDew PointF,Min DewpointF,Max Humidity, Mean Humidity, Min Humidity, Max Sea Level PressureIn, Mean Sea Level PressureIn, Min Sea Level PressureIn, Max VisibilityMiles, Mean VisibilityMiles, Min VisibilityMiles, Max Wind SpeedMPH, Mean Wind SpeedMPH, Max Gust SpeedMPH,PrecipitationIn, CloudCover, Events, WindDirDegrees
2013-10-1,58,49,39,44,39,36,86,67,47,30.17,30.04,29.96,10,10,10,24,8,28,0.07,5,Rain,200
2013-10-2,56,46,36,39,36,33,85,68,50,30.18,30.08,30.01,10,10,10,13,7,17,0.00,1,,224
2013-10-3,58,50,41,42,39,36,100,74,47,30.39,30.26,30.07,10,10,6,16,9,18,0.01,6,,285
2013-10-4,64,49,34,39,36,32,92,62,32,30.50,30.44,30.39,10,10,10,12,6,14,0.00,0,,121
2013-10-5,73,55,37,39,36,31,92,58,23,30.40,30.30,30.19,10,10,10,12,5,13,0.00,0,,107
2013-10-6,70,55,39,41,38,35,86,59,31,30.18,30.05,29.95,10,10,7,14,7,19,0.00,0,,291
2013-10-7,64,54,44,43,38,36,76,59,42,30.01,29.95,29.89,10,10,10,32,15,40,T,3,,223
2013-10-8,54,48,42,42,38,36,83,67,50,30.01,29.95,29.90,10,10,10,29,15,36,T,7,Rain,210
2013-10-9,54,46,38,40,38,36,100,77,54,30.07,30.01,29.92,10,9,2,13,5,14,0.00,6,,284
2013-10-10,63,52,40,40,36,30,86,58,30,29.99,29.91,29.87,10,10,10,17,8,23,0.00,4,,219
2013-10-11,61,52,43,40,37,35,82,61,39,30.10,30.05,30.00,10,10,9,14,5,17,0.00,5,,250
2013-10-12,54,47,40,44,40,37,93,76,59,30.14,30.06,30.00,10,9,6,13,5,15,T,7,Rain,170
2013-10-13,60,48,36,43,38,29,100,68,36,30.30,30.21,30.14,10,7,0,13,5,15,0.00,5,Fog,292
2013-10-14,58,46,33,34,31,29,89,63,36,30.40,30.36,30.30,10,10,10,13,7,15,0.00,0,,132
2013-10-15,62,46,29,35,32,28,92,62,32,30.40,30.30,30.14,10,10,2,10,4,14,0.00,0,,140
2013-10-16,62,48,34,36,33,28,89,61,32,30.17,30.14,30.10,10,9,1,13,6,14,0.00,2,,104
2013-10-17,64,49,34,35,32,30,82,56,30,30.27,30.23,30.17,10,10,2,13,7,14,0.00,0,,111
2013-10-18,64,49,33,35,33,30,89,62,34,30.28,30.23,30.16,10,10,10,12,7,14,0.00,0,,120
2013-10-19,66,50,33,36,34,31,89,62,34,30.15,30.12,30.07,10,10,10,10,5,13,0.00,0,,130
2013-10-20,70,53,36,37,35,32,92,60,28,30.17,30.13,30.09,10,10,9,12,6,13,0.00,0,,142
2013-10-21,72,56,40,40,38,35,76,53,29,30.17,30.13,30.10,10,10,10,12,8,17,0.00,0,,109
2013-10-22,70,54,38,42,39,36,92,63,33,30.17,30.11,30.05,10,10,8,10,5,13,0.00,0,,127
2013-10-23,66,51,36,43,40,34,100,72,44,30.12,30.07,30.04,10,9,2,10,5,14,0.00,0,,153
2013-10-24,66,51,36,44,41,37,100,72,44,30.12,30.08,30.04,10,9,7,10,5,11,0.00,0,,138
2013-10-25,66,51,36,45,41,35,100,74,48,30.23,30.19,30.10,10,7,4,9,5,12,0.00,0,,143
2013-10-26,64,50,35,46,41,35,100,90,80,30.28,30.20,30.08,9,7,3,13,5,15,0.00,0,,114
2013-10-27,52,43,33,45,40,32,100,93,59,30.05,29.82,29.73,10,3,0,24,8,30,0.13,5,Fog-Rain,284
2013-10-28,52,41,30,43,31,23,76,57,38,29.89,29.80,29.75,10,8,2,17,9,24,0.11,4,Rain-Snow,328
2013-10-29,49,39,29,26,24,21,78,57,36,30.04,30.00,29.90,10,10,10,12,6,17,0.00,0,,189
2013-10-30,57,44,30,32,28,25,78,57,35,30.11,30.06,30.02,10,10,10,18,9,22,0.00,0,,186
2013-10-31,63,52,41,44,39,30,80,66,52,30.21,30.11,30.07,10,10,7,24,9,28,T,6,,243